sensor_id;sensor_type;location;lat;lon;timestamp;P1;durP1;ratioP1;P2;durP2;ratioP2
70132;SDS011;57495;49.922;7.966;2022-07-06T00:01:25;5.85;;;1.98;;
70132;SDS011;57495;49.922;7.966;2022-07-06T00:03:26;4.88;;;1.52;;
70132;SDS011;57495;49.922;7.966;2022-07-06T00:05:27;6.03;;;1.90;;
70132;SDS011;57495;49.922;7.966;2022-07-06T00:07:29;3.30;;;1.47;;
70132;SDS011;57495;49.922;7.966;2022-07-06T00:09:30;6.38;;;1.42;;
70132;SDS011;57495;49.922;7.966;2022-07-06T00:11:33;4.90;;;1.80;;
70132;SDS011;57495;49.922;7.966;2022-07-06T00:13:34;5.15;;;1.70;;
70132;SDS011;57495;49.922;7.966;2022-07-06T00:15:36;3.83;;;1.58;;
70132;SDS011;57495;49.922;7.966;2022-07-06T00:17:37;4.30;;;1.77;;
70132;SDS011;57495;49.922;7.966;2022-07-06T00:19:38;6.50;;;1.45;;
70132;SDS011;57495;49.922;7.966;2022-07-06T00:21:40;7.72;;;1.77;;
70132;SDS011;57495;49.922;7.966;2022-07-06T00:23:41;4.93;;;1.42;;
70132;SDS011;57495;49.922;7.966;2022-07-06T00:25:43;6.18;;;1.73;;
70132;SDS011;57495;49.922;7.966;2022-07-06T00:27:46;3.93;;;1.53;;
70132;SDS011;57495;49.922;7.966;2022-07-06T00:29:47;3.70;;;1.30;;
70132;SDS011;57495;49.922;7.966;2022-07-06T00:31:49;4.18;;;1.73;;
70132;SDS011;57495;49.922;7.966;2022-07-06T00:33:51;7.05;;;1.50;;
70132;SDS011;57495;49.922;7.966;2022-07-06T00:35:52;4.40;;;1.55;;
70132;SDS011;57495;49.922;7.966;2022-07-06T00:37:53;6.17;;;1.90;;
70132;SDS011;57495;49.922;7.966;2022-07-06T00:39:55;4.40;;;1.35;;
70132;SDS011;57495;49.922;7.966;2022-07-06T00:41:56;4.13;;;1.50;;
70132;SDS011;57495;49.922;7.966;2022-07-06T00:43:59;4.45;;;1.73;;
70132;SDS011;57495;49.922;7.966;2022-07-06T00:46:00;5.22;;;1.50;;
70132;SDS011;57495;49.922;7.966;2022-07-06T00:48:02;4.20;;;1.60;;
70132;SDS011;57495;49.922;7.966;2022-07-06T00:50:04;5.85;;;1.67;;
70132;SDS011;57495;49.922;7.966;2022-07-06T00:52:18;4.78;;;1.80;;
70132;SDS011;57495;49.922;7.966;2022-07-06T00:54:20;5.05;;;1.75;;
70132;SDS011;57495;49.922;7.966;2022-07-06T00:56:21;4.18;;;1.50;;
70132;SDS011;57495;49.922;7.966;2022-07-06T00:58:23;3.97;;;1.33;;
70132;SDS011;57495;49.922;7.966;2022-07-06T01:00:26;3.38;;;1.30;;
70132;SDS011;57495;49.922;7.966;2022-07-06T01:02:30;5.53;;;1.52;;
70132;SDS011;57495;49.922;7.966;2022-07-06T01:04:32;4.60;;;1.30;;
70132;SDS011;57495;49.922;7.966;2022-07-06T01:06:33;3.53;;;1.48;;
70132;SDS011;57495;49.922;7.966;2022-07-06T01:08:35;3.90;;;1.20;;
70132;SDS011;57495;49.922;7.966;2022-07-06T01:10:36;3.67;;;1.10;;
70132;SDS011;57495;49.922;7.966;2022-07-06T01:12:38;3.63;;;1.60;;
70132;SDS011;57495;49.922;7.966;2022-07-06T01:14:41;7.65;;;1.60;;
70132;SDS011;57495;49.922;7.966;2022-07-06T01:16:44;4.90;;;1.42;;
70132;SDS011;57495;49.922;7.966;2022-07-06T01:18:46;6.57;;;1.63;;
70132;SDS011;57495;49.922;7.966;2022-07-06T01:20:48;4.05;;;1.40;;
70132;SDS011;57495;49.922;7.966;2022-07-06T01:22:50;6.05;;;1.63;;
70132;SDS011;57495;49.922;7.966;2022-07-06T01:24:53;6.68;;;1.55;;
70132;SDS011;57495;49.922;7.966;2022-07-06T01:26:54;4.53;;;1.30;;
70132;SDS011;57495;49.922;7.966;2022-07-06T01:28:56;4.10;;;1.30;;
70132;SDS011;57495;49.922;7.966;2022-07-06T01:30:58;8.10;;;1.17;;
70132;SDS011;57495;49.922;7.966;2022-07-06T01:32:59;4.35;;;1.67;;
70132;SDS011;57495;49.922;7.966;2022-07-06T01:35:00;4.80;;;1.40;;
70132;SDS011;57495;49.922;7.966;2022-07-06T01:37:03;4.20;;;1.20;;
70132;SDS011;57495;49.922;7.966;2022-07-06T01:39:05;3.37;;;1.20;;
70132;SDS011;57495;49.922;7.966;2022-07-06T01:41:09;4.63;;;1.55;;
70132;SDS011;57495;49.922;7.966;2022-07-06T01:43:10;6.90;;;1.60;;
70132;SDS011;57495;49.922;7.966;2022-07-06T01:45:12;3.55;;;1.27;;
70132;SDS011;57495;49.922;7.966;2022-07-06T01:47:13;4.68;;;1.50;;
70132;SDS011;57495;49.922;7.966;2022-07-06T01:49:15;3.80;;;1.17;;
70132;SDS011;57495;49.922;7.966;2022-07-06T01:51:16;3.88;;;1.40;;
70132;SDS011;57495;49.922;7.966;2022-07-06T01:53:19;5.60;;;1.63;;
70132;SDS011;57495;49.922;7.966;2022-07-06T01:55:20;5.75;;;1.30;;
70132;SDS011;57495;49.922;7.966;2022-07-06T01:57:22;5.93;;;1.52;;
70132;SDS011;57495;49.922;7.966;2022-07-06T01:59:23;3.53;;;1.30;;
70132;SDS011;57495;49.922;7.966;2022-07-06T02:01:25;6.47;;;1.48;;
70132;SDS011;57495;49.922;7.966;2022-07-06T02:03:26;4.53;;;1.00;;
70132;SDS011;57495;49.922;7.966;2022-07-06T02:05:28;4.38;;;1.40;;
70132;SDS011;57495;49.922;7.966;2022-07-06T02:07:29;4.55;;;1.30;;
70132;SDS011;57495;49.922;7.966;2022-07-06T02:09:32;6.63;;;1.20;;
70132;SDS011;57495;49.922;7.966;2022-07-06T02:11:33;4.38;;;1.10;;
70132;SDS011;57495;49.922;7.966;2022-07-06T02:13:35;4.35;;;1.10;;
70132;SDS011;57495;49.922;7.966;2022-07-06T02:15:37;5.88;;;1.20;;
70132;SDS011;57495;49.922;7.966;2022-07-06T02:17:39;3.30;;;1.15;;
70132;SDS011;57495;49.922;7.966;2022-07-06T02:19:40;3.40;;;1.20;;
70132;SDS011;57495;49.922;7.966;2022-07-06T02:21:41;4.28;;;1.30;;
70132;SDS011;57495;49.922;7.966;2022-07-06T02:23:43;5.28;;;1.30;;
70132;SDS011;57495;49.922;7.966;2022-07-06T02:25:46;4.63;;;1.60;;
70132;SDS011;57495;49.922;7.966;2022-07-06T02:27:47;5.93;;;1.80;;
70132;SDS011;57495;49.922;7.966;2022-07-06T02:29:49;5.90;;;1.33;;
70132;SDS011;57495;49.922;7.966;2022-07-06T02:31:50;3.58;;;1.63;;
70132;SDS011;57495;49.922;7.966;2022-07-06T02:33:52;3.80;;;1.40;;
70132;SDS011;57495;49.922;7.966;2022-07-06T02:35:53;5.18;;;1.55;;
70132;SDS011;57495;49.922;7.966;2022-07-06T02:37:54;6.72;;;1.60;;
70132;SDS011;57495;49.922;7.966;2022-07-06T02:39:56;4.40;;;1.50;;
70132;SDS011;57495;49.922;7.966;2022-07-06T02:41:59;3.65;;;1.40;;
70132;SDS011;57495;49.922;7.966;2022-07-06T02:44:00;5.93;;;1.63;;
70132;SDS011;57495;49.922;7.966;2022-07-06T02:46:01;4.97;;;1.60;;
70132;SDS011;57495;49.922;7.966;2022-07-06T02:48:03;4.78;;;1.73;;
70132;SDS011;57495;49.922;7.966;2022-07-06T02:50:05;4.20;;;1.27;;
70132;SDS011;57495;49.922;7.966;2022-07-06T02:52:07;5.20;;;1.70;;
70132;SDS011;57495;49.922;7.966;2022-07-06T02:54:09;5.03;;;1.70;;
70132;SDS011;57495;49.922;7.966;2022-07-06T02:56:10;5.40;;;1.60;;
70132;SDS011;57495;49.922;7.966;2022-07-06T02:58:13;6.05;;;2.03;;
70132;SDS011;57495;49.922;7.966;2022-07-06T03:00:14;5.10;;;1.50;;
70132;SDS011;57495;49.922;7.966;2022-07-06T03:02:16;4.80;;;1.50;;
70132;SDS011;57495;49.922;7.966;2022-07-06T03:04:18;7.18;;;1.70;;
70132;SDS011;57495;49.922;7.966;2022-07-06T03:06:19;3.80;;;1.55;;
70132;SDS011;57495;49.922;7.966;2022-07-06T03:08:21;6.65;;;1.75;;
70132;SDS011;57495;49.922;7.966;2022-07-06T03:10:22;5.57;;;1.73;;
70132;SDS011;57495;49.922;7.966;2022-07-06T03:12:24;5.18;;;1.40;;
70132;SDS011;57495;49.922;7.966;2022-07-06T03:14:26;6.43;;;1.90;;
70132;SDS011;57495;49.922;7.966;2022-07-06T03:16:28;4.95;;;1.85;;
70132;SDS011;57495;49.922;7.966;2022-07-06T03:18:30;3.78;;;1.48;;
70132;SDS011;57495;49.922;7.966;2022-07-06T03:20:31;5.37;;;1.43;;
70132;SDS011;57495;49.922;7.966;2022-07-06T03:22:32;6.47;;;1.70;;
70132;SDS011;57495;49.922;7.966;2022-07-06T03:24:34;4.65;;;1.80;;
70132;SDS011;57495;49.922;7.966;2022-07-06T03:26:35;5.07;;;1.60;;
70132;SDS011;57495;49.922;7.966;2022-07-06T03:28:37;5.05;;;1.23;;
70132;SDS011;57495;49.922;7.966;2022-07-06T03:30:39;5.03;;;1.50;;
70132;SDS011;57495;49.922;7.966;2022-07-06T03:32:41;4.72;;;1.50;;
70132;SDS011;57495;49.922;7.966;2022-07-06T03:34:42;4.30;;;1.48;;
70132;SDS011;57495;49.922;7.966;2022-07-06T03:36:44;3.60;;;1.40;;
70132;SDS011;57495;49.922;7.966;2022-07-06T03:38:45;5.60;;;1.48;;
70132;SDS011;57495;49.922;7.966;2022-07-06T03:40:46;4.23;;;1.67;;
70132;SDS011;57495;49.922;7.966;2022-07-06T03:42:48;4.50;;;1.70;;
70132;SDS011;57495;49.922;7.966;2022-07-06T03:44:49;5.68;;;1.70;;
70132;SDS011;57495;49.922;7.966;2022-07-06T03:46:52;5.20;;;1.52;;
70132;SDS011;57495;49.922;7.966;2022-07-06T03:48:55;4.40;;;1.58;;
70132;SDS011;57495;49.922;7.966;2022-07-06T03:50:56;5.40;;;1.50;;
70132;SDS011;57495;49.922;7.966;2022-07-06T03:52:58;5.75;;;1.35;;
70132;SDS011;57495;49.922;7.966;2022-07-06T03:54:59;5.70;;;1.65;;
70132;SDS011;57495;49.922;7.966;2022-07-06T03:57:01;4.28;;;1.45;;
70132;SDS011;57495;49.922;7.966;2022-07-06T03:59:02;5.07;;;1.63;;
70132;SDS011;57495;49.922;7.966;2022-07-06T04:01:04;5.90;;;1.80;;
70132;SDS011;57495;49.922;7.966;2022-07-06T04:03:06;5.30;;;1.80;;
70132;SDS011;57495;49.922;7.966;2022-07-06T04:05:08;6.15;;;1.60;;
70132;SDS011;57495;49.922;7.966;2022-07-06T04:07:09;6.68;;;1.92;;
70132;SDS011;57495;49.922;7.966;2022-07-06T04:09:11;8.02;;;2.28;;
70132;SDS011;57495;49.922;7.966;2022-07-06T04:11:12;5.17;;;1.87;;
70132;SDS011;57495;49.922;7.966;2022-07-06T04:13:13;4.95;;;2.10;;
70132;SDS011;57495;49.922;7.966;2022-07-06T04:15:15;6.28;;;2.20;;
70132;SDS011;57495;49.922;7.966;2022-07-06T04:17:16;5.03;;;2.00;;
70132;SDS011;57495;49.922;7.966;2022-07-06T04:19:37;6.45;;;2.05;;
70132;SDS011;57495;49.922;7.966;2022-07-06T04:21:38;5.60;;;2.10;;
70132;SDS011;57495;49.922;7.966;2022-07-06T04:23:39;7.55;;;2.22;;
70132;SDS011;57495;49.922;7.966;2022-07-06T04:25:41;5.05;;;2.15;;
70132;SDS011;57495;49.922;7.966;2022-07-06T04:27:43;5.80;;;2.10;;
70132;SDS011;57495;49.922;7.966;2022-07-06T04:29:44;8.38;;;2.30;;
70132;SDS011;57495;49.922;7.966;2022-07-06T04:31:45;5.13;;;2.67;;
70132;SDS011;57495;49.922;7.966;2022-07-06T04:33:47;5.78;;;2.10;;
70132;SDS011;57495;49.922;7.966;2022-07-06T04:35:50;7.25;;;1.90;;
70132;SDS011;57495;49.922;7.966;2022-07-06T04:37:51;7.45;;;2.63;;
70132;SDS011;57495;49.922;7.966;2022-07-06T04:39:52;8.75;;;2.13;;
70132;SDS011;57495;49.922;7.966;2022-07-06T04:41:54;7.50;;;2.20;;
70132;SDS011;57495;49.922;7.966;2022-07-06T04:43:55;7.35;;;2.42;;
70132;SDS011;57495;49.922;7.966;2022-07-06T04:45:57;7.15;;;2.22;;
70132;SDS011;57495;49.922;7.966;2022-07-06T04:47:58;6.75;;;2.00;;
70132;SDS011;57495;49.922;7.966;2022-07-06T04:50:00;7.03;;;1.92;;
70132;SDS011;57495;49.922;7.966;2022-07-06T04:52:03;7.63;;;1.87;;
70132;SDS011;57495;49.922;7.966;2022-07-06T04:54:05;7.55;;;2.00;;
70132;SDS011;57495;49.922;7.966;2022-07-06T04:56:06;6.57;;;2.22;;
70132;SDS011;57495;49.922;7.966;2022-07-06T04:58:08;5.93;;;1.80;;
70132;SDS011;57495;49.922;7.966;2022-07-06T05:00:10;9.27;;;1.95;;
70132;SDS011;57495;49.922;7.966;2022-07-06T05:02:12;4.53;;;1.60;;
70132;SDS011;57495;49.922;7.966;2022-07-06T05:04:13;4.65;;;1.85;;
70132;SDS011;57495;49.922;7.966;2022-07-06T05:06:17;6.57;;;1.80;;
70132;SDS011;57495;49.922;7.966;2022-07-06T05:08:21;7.55;;;2.25;;
70132;SDS011;57495;49.922;7.966;2022-07-06T05:10:22;7.72;;;2.10;;
70132;SDS011;57495;49.922;7.966;2022-07-06T05:12:24;5.77;;;1.97;;
70132;SDS011;57495;49.922;7.966;2022-07-06T05:14:25;5.15;;;1.65;;
70132;SDS011;57495;49.922;7.966;2022-07-06T05:16:26;6.60;;;1.80;;
70132;SDS011;57495;49.922;7.966;2022-07-06T05:18:28;6.68;;;1.63;;
70132;SDS011;57495;49.922;7.966;2022-07-06T05:20:30;4.03;;;1.50;;
70132;SDS011;57495;49.922;7.966;2022-07-06T05:22:31;6.67;;;1.43;;
70132;SDS011;57495;49.922;7.966;2022-07-06T05:24:34;5.18;;;1.50;;
70132;SDS011;57495;49.922;7.966;2022-07-06T05:26:35;6.90;;;2.00;;
70132;SDS011;57495;49.922;7.966;2022-07-06T05:28:37;4.53;;;1.65;;
70132;SDS011;57495;49.922;7.966;2022-07-06T05:30:38;5.10;;;1.45;;
70132;SDS011;57495;49.922;7.966;2022-07-06T05:32:39;6.90;;;1.50;;
70132;SDS011;57495;49.922;7.966;2022-07-06T05:34:41;5.35;;;1.60;;
70132;SDS011;57495;49.922;7.966;2022-07-06T05:36:42;5.00;;;1.58;;
70132;SDS011;57495;49.922;7.966;2022-07-06T05:38:44;3.90;;;1.17;;
70132;SDS011;57495;49.922;7.966;2022-07-06T05:40:46;4.97;;;1.52;;
70132;SDS011;57495;49.922;7.966;2022-07-06T05:42:48;4.97;;;1.70;;
70132;SDS011;57495;49.922;7.966;2022-07-06T05:44:49;5.30;;;1.50;;
70132;SDS011;57495;49.922;7.966;2022-07-06T05:46:50;6.60;;;1.80;;
70132;SDS011;57495;49.922;7.966;2022-07-06T05:49:12;5.85;;;1.50;;
70132;SDS011;57495;49.922;7.966;2022-07-06T05:51:31;5.63;;;1.40;;
70132;SDS011;57495;49.922;7.966;2022-07-06T05:53:33;6.07;;;1.60;;
70132;SDS011;57495;49.922;7.966;2022-07-06T05:55:34;5.78;;;1.65;;
70132;SDS011;57495;49.922;7.966;2022-07-06T05:57:37;4.40;;;1.50;;
70132;SDS011;57495;49.922;7.966;2022-07-06T05:59:38;5.57;;;1.60;;
70132;SDS011;57495;49.922;7.966;2022-07-06T06:01:40;6.05;;;1.45;;
70132;SDS011;57495;49.922;7.966;2022-07-06T06:03:41;4.10;;;1.43;;
70132;SDS011;57495;49.922;7.966;2022-07-06T06:05:43;7.00;;;1.77;;
70132;SDS011;57495;49.922;7.966;2022-07-06T06:07:44;11.95;;;1.92;;
70132;SDS011;57495;49.922;7.966;2022-07-06T06:09:48;6.78;;;1.80;;
70132;SDS011;57495;49.922;7.966;2022-07-06T06:11:49;4.00;;;1.50;;
70132;SDS011;57495;49.922;7.966;2022-07-06T06:13:52;8.50;;;1.50;;
70132;SDS011;57495;49.922;7.966;2022-07-06T06:15:53;4.68;;;1.58;;
70132;SDS011;57495;49.922;7.966;2022-07-06T06:17:55;6.68;;;1.63;;
70132;SDS011;57495;49.922;7.966;2022-07-06T06:19:56;4.15;;;1.33;;
70132;SDS011;57495;49.922;7.966;2022-07-06T06:21:58;5.55;;;1.88;;
70132;SDS011;57495;49.922;7.966;2022-07-06T06:23:59;4.37;;;1.67;;
70132;SDS011;57495;49.922;7.966;2022-07-06T06:26:01;6.22;;;1.65;;
70132;SDS011;57495;49.922;7.966;2022-07-06T06:28:03;6.40;;;1.98;;
70132;SDS011;57495;49.922;7.966;2022-07-06T06:30:07;5.80;;;1.80;;
70132;SDS011;57495;49.922;7.966;2022-07-06T06:32:10;5.07;;;2.10;;
70132;SDS011;57495;49.922;7.966;2022-07-06T06:34:12;8.17;;;1.93;;
70132;SDS011;57495;49.922;7.966;2022-07-06T06:36:13;5.55;;;1.77;;
70132;SDS011;57495;49.922;7.966;2022-07-06T06:38:15;9.65;;;1.80;;
70132;SDS011;57495;49.922;7.966;2022-07-06T06:40:17;6.07;;;2.03;;
70132;SDS011;57495;49.922;7.966;2022-07-06T06:42:18;4.47;;;1.67;;
70132;SDS011;57495;49.922;7.966;2022-07-06T06:44:19;6.83;;;1.97;;
70132;SDS011;57495;49.922;7.966;2022-07-06T06:46:24;5.30;;;1.67;;
70132;SDS011;57495;49.922;7.966;2022-07-06T06:48:25;5.68;;;2.00;;
70132;SDS011;57495;49.922;7.966;2022-07-06T06:50:27;6.05;;;1.77;;
70132;SDS011;57495;49.922;7.966;2022-07-06T06:52:29;5.38;;;1.90;;
70132;SDS011;57495;49.922;7.966;2022-07-06T06:54:30;6.33;;;2.00;;
70132;SDS011;57495;49.922;7.966;2022-07-06T06:56:31;4.82;;;1.80;;
70132;SDS011;57495;49.922;7.966;2022-07-06T06:58:33;5.93;;;1.77;;
70132;SDS011;57495;49.922;7.966;2022-07-06T07:00:34;6.22;;;2.28;;
70132;SDS011;57495;49.922;7.966;2022-07-06T07:02:37;5.75;;;2.10;;
70132;SDS011;57495;49.922;7.966;2022-07-06T07:04:39;4.00;;;1.83;;
70132;SDS011;57495;49.922;7.966;2022-07-06T07:06:40;6.18;;;2.28;;
70132;SDS011;57495;49.922;7.966;2022-07-06T07:08:41;8.07;;;2.55;;
70132;SDS011;57495;49.922;7.966;2022-07-06T07:10:43;5.22;;;1.92;;
70132;SDS011;57495;49.922;7.966;2022-07-06T07:12:45;5.10;;;2.15;;
70132;SDS011;57495;49.922;7.966;2022-07-06T07:14:47;5.07;;;2.17;;
70132;SDS011;57495;49.922;7.966;2022-07-06T07:16:48;6.50;;;2.00;;
70132;SDS011;57495;49.922;7.966;2022-07-06T07:18:51;6.25;;;2.20;;
70132;SDS011;57495;49.922;7.966;2022-07-06T07:20:52;7.43;;;2.10;;
70132;SDS011;57495;49.922;7.966;2022-07-06T07:22:54;5.60;;;1.90;;
70132;SDS011;57495;49.922;7.966;2022-07-06T07:24:55;4.87;;;1.60;;
70132;SDS011;57495;49.922;7.966;2022-07-06T07:26:58;5.97;;;1.90;;
70132;SDS011;57495;49.922;7.966;2022-07-06T07:29:00;5.88;;;1.70;;
70132;SDS011;57495;49.922;7.966;2022-07-06T07:31:01;7.20;;;2.10;;
70132;SDS011;57495;49.922;7.966;2022-07-06T07:33:03;4.57;;;1.50;;
70132;SDS011;57495;49.922;7.966;2022-07-06T07:35:06;4.10;;;1.50;;
70132;SDS011;57495;49.922;7.966;2022-07-06T07:37:08;6.97;;;2.08;;
70132;SDS011;57495;49.922;7.966;2022-07-06T07:39:10;5.30;;;1.38;;
70132;SDS011;57495;49.922;7.966;2022-07-06T07:41:11;4.07;;;1.48;;
70132;SDS011;57495;49.922;7.966;2022-07-06T07:43:14;6.55;;;2.03;;
70132;SDS011;57495;49.922;7.966;2022-07-06T07:45:15;4.50;;;1.73;;
70132;SDS011;57495;49.922;7.966;2022-07-06T07:47:16;3.83;;;1.40;;
70132;SDS011;57495;49.922;7.966;2022-07-06T07:49:19;4.65;;;1.77;;
70132;SDS011;57495;49.922;7.966;2022-07-06T07:51:22;3.95;;;1.65;;
70132;SDS011;57495;49.922;7.966;2022-07-06T07:53:23;4.35;;;1.25;;
70132;SDS011;57495;49.922;7.966;2022-07-06T07:55:25;3.40;;;1.10;;
70132;SDS011;57495;49.922;7.966;2022-07-06T07:57:26;4.20;;;1.55;;
70132;SDS011;57495;49.922;7.966;2022-07-06T07:59:28;3.75;;;1.65;;
70132;SDS011;57495;49.922;7.966;2022-07-06T08:01:29;8.77;;;1.65;;
70132;SDS011;57495;49.922;7.966;2022-07-06T08:03:30;6.00;;;1.90;;
70132;SDS011;57495;49.922;7.966;2022-07-06T08:05:32;4.83;;;1.57;;
70132;SDS011;57495;49.922;7.966;2022-07-06T08:07:35;5.80;;;1.23;;
70132;SDS011;57495;49.922;7.966;2022-07-06T08:09:36;3.25;;;1.35;;
70132;SDS011;57495;49.922;7.966;2022-07-06T08:11:37;3.92;;;1.40;;
70132;SDS011;57495;49.922;7.966;2022-07-06T08:13:39;5.07;;;1.80;;
70132;SDS011;57495;49.922;7.966;2022-07-06T08:15:41;4.23;;;1.60;;
70132;SDS011;57495;49.922;7.966;2022-07-06T08:17:43;4.65;;;1.75;;
70132;SDS011;57495;49.922;7.966;2022-07-06T08:19:45;3.88;;;1.83;;
70132;SDS011;57495;49.922;7.966;2022-07-06T08:21:46;3.75;;;1.77;;
70132;SDS011;57495;49.922;7.966;2022-07-06T08:23:49;4.88;;;2.05;;
70132;SDS011;57495;49.922;7.966;2022-07-06T08:25:51;4.73;;;2.00;;
70132;SDS011;57495;49.922;7.966;2022-07-06T08:27:52;4.75;;;2.10;;
70132;SDS011;57495;49.922;7.966;2022-07-06T08:29:53;4.13;;;2.00;;
70132;SDS011;57495;49.922;7.966;2022-07-06T08:31:55;4.65;;;2.10;;
70132;SDS011;57495;49.922;7.966;2022-07-06T08:33:56;4.60;;;2.08;;
70132;SDS011;57495;49.922;7.966;2022-07-06T08:35:59;3.63;;;2.00;;
70132;SDS011;57495;49.922;7.966;2022-07-06T08:38:00;5.10;;;2.40;;
70132;SDS011;57495;49.922;7.966;2022-07-06T08:40:04;4.82;;;2.63;;
70132;SDS011;57495;49.922;7.966;2022-07-06T08:42:07;4.43;;;2.30;;
70132;SDS011;57495;49.922;7.966;2022-07-06T08:44:10;4.78;;;2.83;;
70132;SDS011;57495;49.922;7.966;2022-07-06T08:46:13;5.77;;;2.83;;
70132;SDS011;57495;49.922;7.966;2022-07-06T08:51:12;6.15;;;3.25;;
70132;SDS011;57495;49.922;7.966;2022-07-06T08:53:15;7.35;;;2.83;;
70132;SDS011;57495;49.922;7.966;2022-07-06T08:55:19;6.85;;;3.22;;
70132;SDS011;57495;49.922;7.966;2022-07-06T08:57:20;5.90;;;3.47;;
70132;SDS011;57495;49.922;7.966;2022-07-06T08:59:22;5.95;;;3.85;;
70132;SDS011;57495;49.922;7.966;2022-07-06T09:13:07;8.00;;;4.70;;
70132;SDS011;57495;49.922;7.966;2022-07-06T09:15:09;7.00;;;4.47;;
70132;SDS011;57495;49.922;7.966;2022-07-06T09:17:11;6.10;;;3.60;;
70132;SDS011;57495;49.922;7.966;2022-07-06T09:19:13;6.47;;;3.40;;
70132;SDS011;57495;49.922;7.966;2022-07-06T09:21:22;5.50;;;2.70;;
70132;SDS011;57495;49.922;7.966;2022-07-06T09:23:24;5.43;;;3.00;;
70132;SDS011;57495;49.922;7.966;2022-07-06T09:25:28;4.90;;;2.40;;
70132;SDS011;57495;49.922;7.966;2022-07-06T09:27:30;5.75;;;2.50;;
70132;SDS011;57495;49.922;7.966;2022-07-06T09:29:34;4.72;;;2.40;;
70132;SDS011;57495;49.922;7.966;2022-07-06T09:31:37;5.77;;;2.30;;
70132;SDS011;57495;49.922;7.966;2022-07-06T09:33:38;5.28;;;2.80;;
70132;SDS011;57495;49.922;7.966;2022-07-06T09:35:39;10.90;;;2.28;;
70132;SDS011;57495;49.922;7.966;2022-07-06T09:37:42;4.05;;;2.20;;
70132;SDS011;57495;49.922;7.966;2022-07-06T09:39:44;6.30;;;2.20;;
70132;SDS011;57495;49.922;7.966;2022-07-06T09:41:45;4.73;;;2.50;;
70132;SDS011;57495;49.922;7.966;2022-07-06T09:43:47;5.35;;;2.35;;
70132;SDS011;57495;49.922;7.966;2022-07-06T09:45:51;4.75;;;2.70;;
70132;SDS011;57495;49.922;7.966;2022-07-06T09:47:54;3.80;;;2.40;;
70132;SDS011;57495;49.922;7.966;2022-07-06T09:49:55;5.68;;;2.00;;
70132;SDS011;57495;49.922;7.966;2022-07-06T09:51:57;5.80;;;2.20;;
70132;SDS011;57495;49.922;7.966;2022-07-06T09:54:00;4.20;;;2.13;;
70132;SDS011;57495;49.922;7.966;2022-07-06T09:56:06;4.20;;;1.92;;
70132;SDS011;57495;49.922;7.966;2022-07-06T09:58:08;5.18;;;1.90;;
70132;SDS011;57495;49.922;7.966;2022-07-06T10:00:10;5.20;;;2.47;;
70132;SDS011;57495;49.922;7.966;2022-07-06T10:02:14;3.73;;;1.97;;
70132;SDS011;57495;49.922;7.966;2022-07-06T10:04:16;4.28;;;1.95;;
70132;SDS011;57495;49.922;7.966;2022-07-06T10:06:18;4.07;;;1.73;;
70132;SDS011;57495;49.922;7.966;2022-07-06T10:08:20;4.78;;;1.92;;
70132;SDS011;57495;49.922;7.966;2022-07-06T10:10:22;4.18;;;2.25;;
70132;SDS011;57495;49.922;7.966;2022-07-06T10:12:26;6.60;;;2.03;;
70132;SDS011;57495;49.922;7.966;2022-07-06T10:14:28;4.72;;;1.83;;
70132;SDS011;57495;49.922;7.966;2022-07-06T10:16:30;5.20;;;1.95;;
70132;SDS011;57495;49.922;7.966;2022-07-06T10:18:33;5.97;;;2.05;;
70132;SDS011;57495;49.922;7.966;2022-07-06T10:20:36;4.95;;;1.98;;
70132;SDS011;57495;49.922;7.966;2022-07-06T10:22:39;5.90;;;2.17;;
70132;SDS011;57495;49.922;7.966;2022-07-06T10:24:41;4.10;;;1.50;;
70132;SDS011;57495;49.922;7.966;2022-07-06T10:26:44;3.90;;;1.65;;
70132;SDS011;57495;49.922;7.966;2022-07-06T10:28:47;5.00;;;2.00;;
70132;SDS011;57495;49.922;7.966;2022-07-06T10:30:48;5.55;;;1.52;;
70132;SDS011;57495;49.922;7.966;2022-07-06T10:32:50;4.93;;;1.60;;
70132;SDS011;57495;49.922;7.966;2022-07-06T10:34:54;6.93;;;1.95;;
70132;SDS011;57495;49.922;7.966;2022-07-06T10:36:56;4.43;;;1.85;;
70132;SDS011;57495;49.922;7.966;2022-07-06T10:38:57;4.20;;;1.75;;
70132;SDS011;57495;49.922;7.966;2022-07-06T10:41:29;4.82;;;1.60;;
70132;SDS011;57495;49.922;7.966;2022-07-06T10:43:31;4.23;;;1.40;;
70132;SDS011;57495;49.922;7.966;2022-07-06T10:45:49;3.63;;;1.73;;
70132;SDS011;57495;49.922;7.966;2022-07-06T10:50:31;4.05;;;1.70;;
70132;SDS011;57495;49.922;7.966;2022-07-06T10:52:48;4.55;;;1.85;;
70132;SDS011;57495;49.922;7.966;2022-07-06T10:54:51;3.43;;;1.43;;
70132;SDS011;57495;49.922;7.966;2022-07-06T10:56:57;3.47;;;1.58;;
70132;SDS011;57495;49.922;7.966;2022-07-06T10:59:10;4.05;;;1.55;;
70132;SDS011;57495;49.922;7.966;2022-07-06T11:01:13;4.60;;;1.83;;
70132;SDS011;57495;49.922;7.966;2022-07-06T11:03:35;3.83;;;1.60;;
70132;SDS011;57495;49.922;7.966;2022-07-06T11:05:45;7.20;;;1.60;;
70132;SDS011;57495;49.922;7.966;2022-07-06T11:07:50;5.30;;;1.45;;
70132;SDS011;57495;49.922;7.966;2022-07-06T11:09:53;3.60;;;1.55;;
70132;SDS011;57495;49.922;7.966;2022-07-06T11:11:55;4.95;;;1.63;;
70132;SDS011;57495;49.922;7.966;2022-07-06T11:17:19;3.53;;;1.53;;
70132;SDS011;57495;49.922;7.966;2022-07-06T11:19:22;8.75;;;2.13;;
70132;SDS011;57495;49.922;7.966;2022-07-06T11:21:33;4.70;;;1.40;;
70132;SDS011;57495;49.922;7.966;2022-07-06T11:23:47;3.88;;;1.30;;
70132;SDS011;57495;49.922;7.966;2022-07-06T11:25:49;4.38;;;1.45;;
70132;SDS011;57495;49.922;7.966;2022-07-06T11:27:52;5.10;;;1.50;;
70132;SDS011;57495;49.922;7.966;2022-07-06T11:29:54;5.88;;;1.50;;
70132;SDS011;57495;49.922;7.966;2022-07-06T11:31:57;4.55;;;1.13;;
70132;SDS011;57495;49.922;7.966;2022-07-06T11:34:00;3.97;;;1.42;;
70132;SDS011;57495;49.922;7.966;2022-07-06T11:36:14;4.07;;;1.17;;
70132;SDS011;57495;49.922;7.966;2022-07-06T11:38:28;2.70;;;1.20;;
70132;SDS011;57495;49.922;7.966;2022-07-06T11:40:29;4.40;;;1.13;;
70132;SDS011;57495;49.922;7.966;2022-07-06T11:42:33;3.75;;;1.23;;
70132;SDS011;57495;49.922;7.966;2022-07-06T11:44:36;2.85;;;1.02;;
70132;SDS011;57495;49.922;7.966;2022-07-06T11:46:38;3.72;;;1.40;;
70132;SDS011;57495;49.922;7.966;2022-07-06T11:48:44;2.87;;;1.00;;
70132;SDS011;57495;49.922;7.966;2022-07-06T11:50:56;3.72;;;1.10;;
70132;SDS011;57495;49.922;7.966;2022-07-06T11:52:59;3.42;;;1.20;;
70132;SDS011;57495;49.922;7.966;2022-07-06T11:55:01;4.18;;;1.10;;
70132;SDS011;57495;49.922;7.966;2022-07-06T11:57:03;4.75;;;1.60;;
70132;SDS011;57495;49.922;7.966;2022-07-06T11:59:05;3.47;;;1.10;;
70132;SDS011;57495;49.922;7.966;2022-07-06T12:01:08;4.10;;;1.15;;
70132;SDS011;57495;49.922;7.966;2022-07-06T12:03:10;5.05;;;1.08;;
70132;SDS011;57495;49.922;7.966;2022-07-06T12:05:12;4.10;;;1.27;;
70132;SDS011;57495;49.922;7.966;2022-07-06T12:07:15;4.93;;;1.40;;
70132;SDS011;57495;49.922;7.966;2022-07-06T12:09:19;4.10;;;1.20;;
70132;SDS011;57495;49.922;7.966;2022-07-06T12:11:22;3.33;;;1.10;;
70132;SDS011;57495;49.922;7.966;2022-07-06T12:13:25;3.65;;;1.20;;
70132;SDS011;57495;49.922;7.966;2022-07-06T12:15:26;4.03;;;1.40;;
70132;SDS011;57495;49.922;7.966;2022-07-06T12:17:28;5.65;;;1.60;;
70132;SDS011;57495;49.922;7.966;2022-07-06T12:19:29;4.20;;;1.02;;
70132;SDS011;57495;49.922;7.966;2022-07-06T12:21:30;4.00;;;0.80;;
70132;SDS011;57495;49.922;7.966;2022-07-06T12:23:38;3.30;;;1.10;;
70132;SDS011;57495;49.922;7.966;2022-07-06T12:25:43;4.03;;;1.40;;
70132;SDS011;57495;49.922;7.966;2022-07-06T12:27:45;3.63;;;1.27;;
70132;SDS011;57495;49.922;7.966;2022-07-06T12:29:47;5.25;;;1.40;;
70132;SDS011;57495;49.922;7.966;2022-07-06T12:31:52;3.83;;;1.10;;
70132;SDS011;57495;49.922;7.966;2022-07-06T12:33:56;2.27;;;0.93;;
70132;SDS011;57495;49.922;7.966;2022-07-06T12:36:08;5.07;;;1.10;;
70132;SDS011;57495;49.922;7.966;2022-07-06T12:38:10;2.90;;;1.00;;
70132;SDS011;57495;49.922;7.966;2022-07-06T12:40:11;3.63;;;1.00;;